Time;durP1;ratioP1;P1;durP2;ratioP2;P2;SDS_P1;SDS_P2;PMS_P1;PMS_P2;Temp;Humidity;BMP_temperature;BMP_pressure;BME280_temperature;BME280_humidity;BME280_pressure;Samples;Min_cycle;Max_cycle;Signal;HPM_P1;HPM_P2
2024/01/28 00:00:19;;;;;;;21.73;9.23;;;;;;;0.60;100.00;103413.88;4989511;28;20121;-79
2024/01/28 00:02:47;;;;;;;21.58;10.38;;;;;;;0.59;100.00;103412.06;4986803;28;20049;-80
2024/01/28 00:05:14;;;;;;;27.52;9.68;;;;;;;0.56;100.00;103409.22;5023575;28;20497;-79
2024/01/28 00:07:42;;;;;;;22.40;10.02;;;;;;;0.52;100.00;103397.66;5020535;28;20053;-78
2024/01/28 00:10:10;;;;;;;21.88;10.40;;;;;;;0.51;100.00;103400.13;4990541;28;20410;-78
2024/01/28 00:12:38;;;;;;;23.67;9.77;;;;;;;0.48;100.00;103397.28;4975840;28;24470;-78
2024/01/28 00:15:06;;;;;;;22.25;9.27;;;;;;;0.46;100.00;103388.47;5022371;28;20056;-78
2024/01/28 00:17:34;;;;;;;17.70;9.55;;;;;;;0.45;100.00;103394.41;4991167;28;20054;-78
2024/01/28 00:20:03;;;;;;;24.08;10.20;;;;;;;0.45;100.00;103389.22;5018493;28;20041;-79
2024/01/28 00:22:30;;;;;;;22.98;9.23;;;;;;;0.44;100.00;103390.03;5013916;28;20045;-78
2024/01/28 00:24:59;;;;;;;22.88;10.38;;;;;;;0.43;100.00;103383.00;5015325;28;20875;-79
2024/01/28 00:27:28;;;;;;;;;;;;;;;0.41;100.00;103380.28;4980339;28;20320;-77
2024/01/28 00:29:56;;;;;;;29.35;9.77;;;;;;;0.39;100.00;103377.53;4992712;28;19932;-77
2024/01/28 00:32:23;;;;;;;23.42;10.35;;;;;;;0.42;100.00;103368.19;4965759;28;20057;-77
2024/01/28 00:34:51;;;;;;;23.05;9.32;;;;;;;0.43;100.00;103383.00;4996720;28;20049;-77
2024/01/28 00:37:18;;;;;;;24.55;10.27;;;;;;;0.43;100.00;103385.59;4991444;28;20045;-77
2024/01/28 00:39:45;;;;;;;22.33;9.93;;;;;;;0.41;100.00;103384.56;4997004;28;20054;-78
2024/01/28 00:42:16;;;;;;;27.35;9.77;;;;;;;0.38;100.00;103377.44;4965647;28;20049;-79
2024/01/28 00:44:43;;;;;;;29.83;10.45;;;;;;;0.36;100.00;103382.50;5003890;28;20038;-79
2024/01/28 00:47:11;;;;;;;24.60;10.20;;;;;;;0.36;100.00;103382.50;4998870;28;20045;-79
2024/01/28 00:49:38;;;;;;;23.05;9.82;;;;;;;0.38;100.00;103391.31;4980140;28;20151;-79
2024/01/28 00:52:07;;;;;;;23.95;9.57;;;;;;;0.37;100.00;103393.75;5000984;28;20053;-79
2024/01/28 00:54:35;;;;;;;18.67;9.40;;;;;;;0.38;100.00;103380.94;4988458;28;20060;-79
2024/01/28 00:57:03;;;;;;;24.48;10.13;;;;;;;0.40;100.00;103386.25;4983037;28;20407;-79
2024/01/28 00:59:31;;;;;;;20.15;9.02;;;;;;;0.37;100.00;103384.28;4986195;28;20089;-78
2024/01/28 01:01:58;;;;;;;32.03;11.25;;;;;;;0.37;100.00;103381.69;4991684;28;20054;-78
2024/01/28 01:04:26;;;;;;;25.08;11.15;;;;;;;0.36;100.00;103382.50;4928680;28;20569;-79
2024/01/28 01:06:53;;;;;;;21.58;9.88;;;;;;;0.36;100.00;103379.00;5008570;28;20060;-79
2024/01/28 01:09:21;;;;;;;20.42;8.98;;;;;;;0.34;100.00;103368.47;4989462;28;20038;-79
2024/01/28 01:11:49;;;;;;;26.15;9.43;;;;;;;0.31;100.00;103376.00;4979802;28;20054;-79
2024/01/28 01:14:16;;;;;;;21.58;10.20;;;;;;;0.28;100.00;103365.34;5029839;28;20054;-79
2024/01/28 01:16:43;;;;;;;22.17;9.15;;;;;;;0.28;100.00;103364.44;4991741;28;20054;-79
2024/01/28 01:19:11;;;;;;;22.52;9.32;;;;;;;0.27;100.00;103355.75;4941527;28;20054;-79
2024/01/28 01:21:38;;;;;;;27.05;9.95;;;;;;;0.26;100.00;103348.75;4976479;28;20057;-79
2024/01/28 01:24:06;;;;;;;18.60;9.55;;;;;;;0.26;100.00;103347.84;4992301;28;20050;-79
2024/01/28 01:26:33;;;;;;;17.52;8.90;;;;;;;0.26;100.00;103346.16;5001050;28;20048;-79
2024/01/28 01:29:01;;;;;;;28.20;10.25;;;;;;;0.28;100.00;103347.19;4987758;28;20482;-79
2024/01/28 01:31:28;;;;;;;18.58;9.50;;;;;;;0.30;100.00;103340.47;4988661;28;20068;-79
2024/01/28 01:33:55;;;;;;;22.45;9.48;;;;;;;0.31;100.00;103342.28;4995333;28;20053;-78
2024/01/28 01:36:23;;;;;;;35.92;11.80;;;;;;;0.32;100.00;103338.91;4969666;28;20057;-79
2024/01/28 01:38:51;;;;;;;25.48;9.98;;;;;;;0.34;100.00;103332.16;5010860;28;20526;-79
2024/01/28 01:41:18;;;;;;;21.60;9.65;;;;;;;0.36;100.00;103327.13;5003203;28;20047;-79
2024/01/28 01:43:46;;;;;;;20.27;10.20;;;;;;;0.36;100.00;103327.13;5006442;28;20396;-79
2024/01/28 01:46:14;;;;;;;24.25;10.90;;;;;;;0.36;100.00;103320.22;5008840;28;20045;-79
2024/01/28 01:48:42;;;;;;;21.80;9.95;;;;;;;0.36;100.00;103322.81;4966003;28;20399;-79
2024/01/28 01:51:11;;;;;;;26.20;11.32;;;;;;;0.36;100.00;103328.00;5002351;28;20049;-79
2024/01/28 01:53:40;;;;;;;23.17;10.70;;;;;;;0.37;100.00;103322.03;4995131;28;20053;-79
2024/01/28 01:56:08;;;;;;;29.13;10.63;;;;;;;0.38;100.00;103318.69;5010229;28;20052;-79
2024/01/28 01:58:35;;;;;;;23.15;10.68;;;;;;;0.39;100.00;103320.47;4997691;28;20053;-79
2024/01/28 02:01:04;;;;;;;26.75;9.77;;;;;;;0.41;100.00;103309.34;5011478;28;20053;-79
2024/01/28 02:03:33;;;;;;;22.33;11.15;;;;;;;0.44;100.00;103312.19;5003286;28;20075;-79
2024/01/28 02:06:01;;;;;;;20.90;9.80;;;;;;;0.42;100.00;103314.66;4958108;28;20053;-79
2024/01/28 02:08:28;;;;;;;21.52;10.23;;;;;;;0.42;100.00;103316.31;5008015;28;20734;-79
2024/01/28 02:10:56;;;;;;;21.48;10.55;;;;;;;0.41;100.00;103315.41;4996947;28;20045;-78
2024/01/28 02:13:23;;;;;;;20.80;10.13;;;;;;;0.41;100.00;103306.75;5003553;28;20875;-78
2024/01/28 02:15:51;;;;;;;22.92;9.98;;;;;;;0.40;100.00;103308.44;5005514;28;20045;-79
2024/01/28 02:18:19;;;;;;;18.95;9.90;;;;;;;0.39;100.00;103297.13;5001953;28;20495;-79
2024/01/28 02:20:46;;;;;;;28.40;10.55;;;;;;;0.38;100.00;103297.91;4985742;28;20041;-79
2024/01/28 02:23:18;;;;;;;22.65;9.95;;;;;;;0.39;100.00;103293.63;4999994;28;20399;-79
2024/01/28 02:25:45;;;;;;;28.13;10.93;;;;;;;0.37;100.00;103296.09;5011046;28;20064;-79
2024/01/28 02:28:13;;;;;;;23.23;11.45;;;;;;;0.39;100.00;103291.03;5006646;28;20054;-79
2024/01/28 02:30:40;;;;;;;22.95;10.55;;;;;;;0.37;100.00;103284.81;5003156;28;20042;-79
2024/01/28 02:33:08;;;;;;;24.30;9.60;;;;;;;0.36;100.00;103294.28;5008878;28;20069;-79
2024/01/28 02:35:36;;;;;;;28.77;10.63;;;;;;;0.37;100.00;103284.81;4975111;28;20056;-79
2024/01/28 02:38:03;;;;;;;30.42;10.95;;;;;;;0.38;100.00;103277.16;5005196;28;20038;-79
2024/01/28 02:40:31;;;;;;;19.45;10.23;;;;;;;0.40;100.00;103272.13;5007388;28;20048;-79
2024/01/28 02:43:00;;;;;;;21.17;10.30;;;;;;;0.42;100.00;103267.97;5010096;28;20060;-79
2024/01/28 02:45:27;;;;;;;28.08;11.38;;;;;;;0.44;100.00;103266.41;4978487;28;20065;-79
2024/01/28 02:47:55;;;;;;;24.38;10.55;;;;;;;0.46;100.00;103261.34;5010225;28;20479;-79
2024/01/28 02:50:22;;;;;;;22.25;10.35;;;;;;;0.47;100.00;103268.31;5013617;28;20050;-77
2024/01/28 02:52:50;;;;;;;22.92;10.43;;;;;;;0.47;100.00;103266.63;4963803;28;20060;-78
2024/01/28 02:55:17;;;;;;;24.55;11.15;;;;;;;0.47;100.00;103265.72;4989056;28;20057;-77
2024/01/28 02:57:44;;;;;;;16.38;9.77;;;;;;;0.47;100.00;103268.31;4991161;28;20045;-78
2024/01/28 03:00:12;;;;;;;21.98;9.82;;;;;;;0.47;100.00;103255.34;4998781;28;20053;-78
2024/01/28 03:02:40;;;;;;;25.80;11.20;;;;;;;0.48;100.00;103252.00;4999895;28;20037;-77
2024/01/28 03:05:11;;;;;;;17.63;10.50;;;;;;;0.49;100.00;103240.81;4997746;28;20045;-78
2024/01/28 03:07:39;;;;;;;26.75;11.10;;;;;;;0.50;100.00;103245.25;4962588;28;20056;-77
2024/01/28 03:10:07;;;;;;;20.85;10.00;;;;;;;0.52;100.00;103243.69;5015960;28;20057;-77
2024/01/28 03:12:34;;;;;;;26.17;11.50;;;;;;;0.53;100.00;103232.50;4998065;28;20041;-78
2024/01/28 03:15:02;;;;;;;28.50;10.63;;;;;;;0.52;100.00;103225.53;4998663;28;20046;-78
2024/01/28 03:17:30;;;;;;;24.85;10.38;;;;;;;0.53;100.00;103220.47;4997308;28;20584;-77
2024/01/28 03:19:57;;;;;;;23.42;11.02;;;;;;;0.54;100.00;103217.06;4989794;28;20056;-78
2024/01/28 03:22:25;;;;;;;21.65;11.23;;;;;;;0.53;100.00;103203.97;4999836;28;20049;-77
2024/01/28 03:24:52;;;;;;;23.02;11.48;;;;;;;0.54;100.00;103195.41;4983326;28;20468;-77
2024/01/28 03:27:20;;;;;;;32.95;10.98;;;;;;;0.54;100.00;103198.00;5007559;28;20052;-77
2024/01/28 03:29:47;;;;;;;22.02;9.45;;;;;;;0.56;100.00;103201.63;4960455;28;20050;-78
2024/01/28 03:32:15;;;;;;;22.42;11.45;;;;;;;0.58;100.00;103206.16;4996370;28;20034;-77
2024/01/28 03:34:43;;;;;;;22.63;10.57;;;;;;;0.61;100.00;103208.13;4967173;28;20042;-78
2024/01/28 03:37:11;;;;;;;15.95;9.55;;;;;;;0.64;100.00;103215.22;4982543;28;20050;-77
2024/01/28 03:39:38;;;;;;;21.85;10.15;;;;;;;0.66;100.00;103204.22;4946270;28;20061;-78
2024/01/28 03:42:07;;;;;;;26.70;10.88;;;;;;;0.69;100.00;103208.72;4989640;28;20050;-77
2024/01/28 03:44:35;;;;;;;24.88;10.07;;;;;;;0.69;100.00;103216.53;4966072;28;20054;-79
2024/01/28 03:47:02;;;;;;;20.08;9.65;;;;;;;0.72;100.00;103216.78;4971542;28;20046;-77
2024/01/28 03:49:29;;;;;;;26.95;10.20;;;;;;;0.73;100.00;103215.97;4994521;28;20046;-77
2024/01/28 03:51:57;;;;;;;19.73;10.35;;;;;;;0.74;100.00;103218.72;4977508;28;20053;-77
2024/01/28 03:54:24;;;;;;;20.15;10.00;;;;;;;0.74;100.00;103210.91;4983173;28;20054;-77
2024/01/28 03:56:52;;;;;;;25.95;10.32;;;;;;;0.76;100.00;103211.94;4992137;28;20826;-78
2024/01/28 03:59:20;;;;;;;23.98;13.73;;;;;;;0.77;100.00;103218.94;5003777;28;20174;-78
2024/01/28 04:01:47;;;;;;;27.77;11.73;;;;;;;0.77;100.00;103216.34;4959189;28;20075;-78
2024/01/28 04:04:15;;;;;;;20.77;10.18;;;;;;;0.78;100.00;103210.38;4985745;28;20085;-77
2024/01/28 04:06:44;;;;;;;25.05;10.90;;;;;;;0.78;100.00;103212.97;4977583;28;20045;-78
2024/01/28 04:09:13;;;;;;;24.98;10.18;;;;;;;0.77;100.00;103213.75;4962338;28;20050;-77
2024/01/28 04:11:41;;;;;;;24.92;11.20;;;;;;;0.80;100.00;103209.59;4993002;28;20049;-78
2024/01/28 04:14:08;;;;;;;19.08;10.10;;;;;;;0.81;100.00;103212.31;4987271;28;20415;-77
2024/01/28 04:16:36;;;;;;;29.52;11.35;;;;;;;0.81;100.00;103214.91;4976640;28;20038;-78
2024/01/28 04:19:03;;;;;;;20.45;10.85;;;;;;;0.81;100.00;103220.09;4997120;28;20046;-78
2024/01/28 04:21:32;;;;;;;25.17;10.68;;;;;;;0.82;100.00;103219.31;4990210;28;20053;-79
2024/01/28 04:24:00;;;;;;;23.17;11.07;;;;;;;0.83;100.00;103217.63;4969412;28;20050;-79
2024/01/28 04:26:28;;;;;;;25.90;11.57;;;;;;;0.83;100.00;103210.72;5007358;28;20050;-77
2024/01/28 04:28:55;;;;;;;23.88;11.27;;;;;;;0.82;100.00;103205.44;5000566;28;20049;-77
2024/01/28 04:31:29;;;;;;;22.92;11.68;;;;;;;0.81;100.00;103208.81;4982984;28;20480;-79
2024/01/28 04:33:59;;;;;;;25.73;11.30;;;;;;;0.82;100.00;103213.22;4998093;28;20104;-79
2024/01/28 04:36:27;;;;;;;24.65;11.50;;;;;;;0.80;100.00;103202.72;5011497;28;20053;-79
2024/01/28 04:38:54;;;;;;;23.67;11.35;;;;;;;0.80;100.00;103200.13;4987381;28;20430;-79
2024/01/28 04:41:22;;;;;;;22.33;10.40;;;;;;;0.82;100.00;103200.25;4998281;28;20049;-79
2024/01/28 04:43:49;;;;;;;24.92;11.27;;;;;;;0.81;100.00;103191.53;4998154;28;20041;-79
2024/01/28 04:46:17;;;;;;;20.48;9.68;;;;;;;0.81;100.00;103193.22;5029505;28;20402;-79
2024/01/28 04:48:44;;;;;;;27.80;11.23;;;;;;;0.80;100.00;103194.94;5006529;28;20049;-79
2024/01/28 04:51:12;;;;;;;16.75;10.43;;;;;;;0.80;100.00;103175.88;5003075;28;20049;-79
2024/01/28 04:53:40;;;;;;;24.85;10.85;;;;;;;0.80;100.00;103162.88;5003056;28;20052;-79
2024/01/28 04:56:10;;;;;;;21.17;10.50;;;;;;;0.77;100.00;103156.63;4994287;28;20517;-79
2024/01/28 04:58:37;;;;;;;21.45;11.32;;;;;;;0.76;100.00;103152.25;4982612;28;20057;-79
2024/01/28 05:01:05;;;;;;;30.02;10.77;;;;;;;0.73;100.00;103152.00;5001402;28;20064;-79
2024/01/28 05:03:33;;;;;;;25.90;10.38;;;;;;;0.73;100.00;103162.38;4962453;28;20399;-77
2024/01/28 05:06:04;;;;;;;18.67;9.13;;;;;;;0.70;100.00;103151.78;4978631;28;20057;-79
2024/01/28 05:08:31;;;;;;;;;;;;;;;0.67;100.00;103148.91;4999480;28;20045;-79
2024/01/28 05:10:59;;;;;;;26.05;10.73;;;;;;;0.66;100.00;103144.53;4990171;28;19925;-78
2024/01/28 05:13:26;;;;;;;21.83;10.02;;;;;;;0.65;100.00;103142.69;5008038;28;20064;-79
2024/01/28 05:15:54;;;;;;;21.15;9.75;;;;;;;0.64;100.00;103139.97;4995189;28;20061;-78
2024/01/28 05:18:21;;;;;;;25.00;10.05;;;;;;;0.61;100.00;103145.84;5003421;28;20049;-79
2024/01/28 05:20:49;;;;;;;15.00;9.60;;;;;;;0.58;100.00;103145.56;4991907;28;20057;-78
2024/01/28 05:23:16;;;;;;;23.75;10.70;;;;;;;0.56;100.00;103140.25;5001479;28;20045;-78
2024/01/28 05:25:44;;;;;;;17.73;9.02;;;;;;;0.52;100.00;103140.78;4981076;28;20453;-78
2024/01/28 05:28:11;;;;;;;27.17;10.00;;;;;;;0.48;100.00;103136.16;5006840;28;20506;-79
2024/01/28 05:30:39;;;;;;;20.67;9.68;;;;;;;0.45;100.00;103137.59;4988093;28;20058;-78
2024/01/28 05:33:06;;;;;;;19.38;8.45;;;;;;;0.42;100.00;103120.09;4970459;28;20060;-78
2024/01/28 05:35:34;;;;;;;18.17;9.02;;;;;;;0.39;100.00;103130.22;4984023;28;20049;-78
2024/01/28 05:38:01;;;;;;;19.45;9.45;;;;;;;0.36;100.00;103142.97;4973191;28;20085;-78
2024/01/28 05:40:29;;;;;;;18.00;9.20;;;;;;;0.34;100.00;103141.88;4999985;28;20502;-78
2024/01/28 05:42:56;;;;;;;15.68;8.60;;;;;;;0.31;100.00;103142.56;4990637;28;20038;-78
2024/01/28 05:45:24;;;;;;;19.13;8.75;;;;;;;0.30;100.00;103145.03;4998310;28;20049;-79
2024/01/28 05:47:51;;;;;;;23.75;9.55;;;;;;;0.27;100.00;103135.31;4992949;28;20069;-78
2024/01/28 05:50:19;;;;;;;22.23;8.88;;;;;;;0.26;100.00;103135.19;4989854;28;20053;-79
2024/01/28 05:52:46;;;;;;;19.48;9.43;;;;;;;0.24;100.00;103137.66;5013059;28;20410;-79
2024/01/28 05:55:14;;;;;;;18.83;8.90;;;;;;;0.21;100.00;103127.03;4984896;28;20061;-78
2024/01/28 05:57:41;;;;;;;16.73;8.85;;;;;;;0.19;100.00;103121.72;5001293;28;20041;-78
2024/01/28 06:00:10;;;;;;;20.42;9.43;;;;;;;0.20;100.00;103120.03;4987044;28;20057;-79
2024/01/28 06:02:38;;;;;;;22.15;8.63;;;;;;;0.21;100.00;103127.03;4990804;28;20608;-78
2024/01/28 06:05:07;;;;;;;30.55;10.05;;;;;;;0.19;100.00;103115.63;4960735;28;20053;-78
2024/01/28 06:07:34;;;;;;;21.92;8.90;;;;;;;0.19;100.00;103119.13;5000087;28;23143;-78
2024/01/28 06:10:02;;;;;;;17.20;8.75;;;;;;;0.20;100.00;103114.84;4977904;28;20057;-79
2024/01/28 06:12:30;;;;;;;17.75;8.98;;;;;;;0.22;100.00;103112.38;4983735;28;20053;-79
2024/01/28 06:15:02;;;;;;;25.50;9.02;;;;;;;0.19;100.00;103126.91;5002811;28;20045;-79
2024/01/28 06:17:29;;;;;;;21.35;8.82;;;;;;;0.19;100.00;103121.72;4997596;28;20274;-78
2024/01/28 06:19:57;;;;;;;17.80;8.82;;;;;;;0.21;100.00;103127.03;5027294;28;20060;-79
2024/01/28 06:22:24;;;;;;;21.75;9.90;;;;;;;0.21;100.00;103127.03;4988150;28;20049;-78
2024/01/28 06:24:52;;;;;;;19.55;9.15;;;;;;;0.21;100.00;103137.41;4993242;28;20057;-79
2024/01/28 06:27:19;;;;;;;17.52;8.88;;;;;;;0.22;100.00;103138.31;4982176;28;20053;-78
2024/01/28 06:29:47;;;;;;;14.45;9.43;;;;;;;0.22;100.00;103146.09;5005275;28;20064;-79
2024/01/28 06:32:15;;;;;;;19.10;8.85;;;;;;;0.20;100.00;103145.97;4984218;28;20064;-79
2024/01/28 06:34:42;;;;;;;19.10;9.90;;;;;;;0.19;100.00;103139.88;5008334;28;20037;-79
2024/01/28 06:37:10;;;;;;;19.42;9.68;;;;;;;0.17;100.00;103137.91;4996120;28;20052;-78
2024/01/28 06:39:37;;;;;;;25.15;8.60;;;;;;;0.16;100.00;103144.81;5016390;28;20041;-78
2024/01/28 06:42:04;;;;;;;20.30;8.20;;;;;;;0.14;100.00;103140.28;5008889;28;20052;-79
2024/01/28 06:44:32;;;;;;;15.18;8.35;;;;;;;0.12;100.00;103131.47;4987017;28;20084;-79
2024/01/28 06:47:00;;;;;;;17.08;8.68;;;;;;;0.12;100.00;103121.09;4999526;28;20053;-79
2024/01/28 06:49:27;;;;;;;13.95;8.52;;;;;;;0.10;100.00;103120.06;5005492;28;20061;-78
2024/01/28 06:51:55;;;;;;;17.38;9.02;;;;;;;0.08;100.00;103116.44;4988484;28;20057;-79
2024/01/28 06:54:23;;;;;;;19.52;9.25;;;;;;;0.07;100.00;103117.22;4981593;28;23829;-78
2024/01/28 06:56:50;;;;;;;17.27;8.35;;;;;;;0.05;100.00;103111.91;5012151;28;20041;-79
2024/01/28 06:59:18;;;;;;;19.40;9.00;;;;;;;0.04;100.00;103112.69;5007913;28;20415;-78
2024/01/28 07:01:46;;;;;;;23.02;9.68;;;;;;;0.02;100.00;103113.31;4997971;28;20053;-78
2024/01/28 07:04:13;;;;;;;16.23;8.55;;;;;;;0.02;100.00;103116.84;5006963;28;20064;-78
2024/01/28 07:06:41;;;;;;;21.48;8.63;;;;;;;0.01;100.00;103108.94;4990145;28;20049;-78
2024/01/28 07:09:09;;;;;;;19.35;8.45;;;;;;;-0.01;100.00;103104.53;5004494;28;20053;-79
2024/01/28 07:11:37;;;;;;;14.82;7.63;;;;;;;-0.01;100.00;103114.00;4980093;28;20050;-79
2024/01/28 07:14:04;;;;;;;19.98;8.35;;;;;;;-0.03;100.00;103118.16;4983418;28;20045;-79
2024/01/28 07:16:32;;;;;;;17.77;8.68;;;;;;;-0.02;100.00;103117.34;4995224;28;20037;-78
2024/01/28 07:18:59;;;;;;;17.98;7.70;;;;;;;-0.04;100.00;103119.84;4985063;28;20057;-79
2024/01/28 07:21:27;;;;;;;15.48;7.85;;;;;;;-0.05;100.00;103124.91;5007742;28;20049;-79
2024/01/28 07:23:54;;;;;;;15.93;8.05;;;;;;;-0.04;100.00;103108.53;5010382;28;20049;-78
2024/01/28 07:26:22;;;;;;;19.05;8.40;;;;;;;-0.05;100.00;103112.84;4990903;28;20049;-79
2024/01/28 07:28:50;;;;;;;17.90;7.93;;;;;;;-0.04;100.00;103118.91;5001162;28;20058;-79
2024/01/28 07:31:17;;;;;;;16.75;7.90;;;;;;;-0.05;100.00;103112.84;4988595;28;20038;-79
2024/01/28 07:33:44;;;;;;;14.95;8.25;;;;;;;-0.05;100.00;103110.25;4985963;28;20049;-79
2024/01/28 07:36:12;;;;;;;17.45;9.43;;;;;;;-0.05;100.00;103110.25;4992772;28;20046;-78
2024/01/28 07:38:40;;;;;;;21.30;8.68;;;;;;;-0.05;100.00;103097.28;4984846;28;20363;-79
2024/01/28 07:41:14;;;;;;;22.85;7.75;;;;;;;-0.04;100.00;103111.13;4977820;28;20072;-78
2024/01/28 07:43:42;;;;;;;15.93;8.43;;;;;;;-0.05;100.00;103106.75;4960000;28;20144;-79
2024/01/28 07:46:09;;;;;;;15.75;7.18;;;;;;;-0.04;100.00;103103.34;4967971;28;20057;-79
2024/01/28 07:48:37;;;;;;;15.70;7.45;;;;;;;-0.05;100.00;103099.88;4981122;28;20058;-78
2024/01/28 07:51:05;;;;;;;19.42;8.35;;;;;;;-0.04;100.00;103091.34;4981800;28;20065;-78
2024/01/28 07:53:32;;;;;;;19.95;7.75;;;;;;;-0.03;100.00;103098.31;4957386;28;20049;-79
2024/01/28 07:56:02;;;;;;;14.40;7.50;;;;;;;0.00;100.00;103105.44;4975912;28;20156;-79
2024/01/28 07:58:30;;;;;;;13.43;7.55;;;;;;;0.02;100.00;103101.28;4975910;28;20061;-79
2024/01/28 08:00:58;;;;;;;14.90;7.53;;;;;;;0.04;100.00;103097.13;4987330;28;20053;-78
2024/01/28 08:03:26;;;;;;;11.13;6.68;;;;;;;0.05;100.00;103095.44;4990283;28;20501;-79
2024/01/28 08:05:53;;;;;;;20.17;8.00;;;;;;;0.07;100.00;103096.47;4978742;28;20058;-78
2024/01/28 08:08:20;;;;;;;9.52;6.90;;;;;;;0.09;100.00;103100.09;4968732;28;20054;-79
2024/01/28 08:10:49;;;;;;;18.23;7.18;;;;;;;0.11;100.00;103090.75;5009604;28;20042;-78
2024/01/28 08:13:19;;;;;;;16.77;7.60;;;;;;;0.14;100.00;103091.03;4956784;28;20423;-78
2024/01/28 08:15:47;;;;;;;15.82;7.50;;;;;;;0.16;100.00;103073.88;4994701;28;20072;-78
2024/01/28 08:18:14;;;;;;;13.57;5.78;;;;;;;0.18;100.00;103093.97;4972198;28;20793;-78
2024/01/28 08:20:42;;;;;;;23.80;7.22;;;;;;;0.22;100.00;103096.81;4982863;28;20061;-78
2024/01/28 08:23:09;;;;;;;13.95;7.20;;;;;;;0.25;100.00;103095.38;4977021;28;20053;-78
2024/01/28 08:25:37;;;;;;;14.98;6.47;;;;;;;0.29;100.00;103107.81;4957376;28;20053;-78
2024/01/28 08:28:05;;;;;;;16.95;7.00;;;;;;;0.33;100.00;103091.72;4984750;28;20470;-78
2024/01/28 08:30:32;;;;;;;12.20;6.60;;;;;;;0.38;100.00;103100.78;5003077;28;20061;-78
2024/01/28 08:33:00;;;;;;;13.27;6.00;;;;;;;0.42;100.00;103090.63;4941971;28;20037;-78
2024/01/28 08:35:31;;;;;;;10.00;6.10;;;;;;;0.45;100.00;103088.28;4953480;28;20062;-78
2024/01/28 08:37:58;;;;;;;14.25;6.90;;;;;;;0.48;100.00;103080.78;4972442;28;20054;-78
2024/01/28 08:40:26;;;;;;;15.82;6.93;;;;;;;0.49;100.00;103087.75;4971571;28;20038;-78
2024/01/28 08:42:53;;;;;;;11.93;6.18;;;;;;;0.49;100.00;103078.31;4976911;28;20053;-77
2024/01/28 08:45:21;;;;;;;13.93;6.45;;;;;;;0.49;100.00;103083.50;4962649;28;20054;-78
2024/01/28 08:47:49;;;;;;;12.13;5.78;;;;;;;0.49;100.00;103078.31;4958724;28;20057;-78
2024/01/28 08:50:17;;;;;;;12.88;5.82;;;;;;;0.49;100.00;103078.31;4971531;28;20050;-79
2024/01/28 08:52:44;;;;;;;15.80;5.43;;;;;;;0.50;100.00;103072.31;4990944;28;20057;-78
2024/01/28 08:55:12;;;;;;;13.63;6.72;;;;;;;0.52;100.00;103065.56;4971967;28;20046;-78
2024/01/28 08:57:39;;;;;;;10.63;5.63;;;;;;;0.57;100.00;103069.44;4966177;28;20062;-78
2024/01/28 09:00:11;;;;;;;12.45;6.53;;;;;;;0.62;100.00;103059.41;4991658;28;20064;-78
2024/01/28 09:02:39;;;;;;;17.85;6.00;;;;;;;0.69;100.00;103043.53;4948604;28;20050;-77
2024/01/28 09:05:10;;;;;;;14.50;5.55;;;;;;;0.75;100.00;103049.19;4966566;28;20053;-77
2024/01/28 09:07:41;;;;;;;11.20;5.25;;;;;;;0.82;100.00;103039.31;4967818;28;20418;-77
2024/01/28 09:10:09;;;;;;;12.23;5.82;;;;;;;0.90;100.00;103048.59;4975910;28;20994;-77
2024/01/28 09:12:37;;;;;;;12.57;4.88;;;;;;;0.96;100.00;103038.69;4964507;28;20042;-77
2024/01/28 09:15:05;;;;;;;10.52;4.72;;;;;;;1.02;100.00;103044.38;4972482;28;20038;-77
2024/01/28 09:17:33;;;;;;;13.60;4.85;;;;;;;1.09;100.00;103043.13;4996176;28;20045;-78
2024/01/28 09:20:00;;;;;;;9.35;4.97;;;;;;;1.16;100.00;103033.34;4992533;28;20050;-77
2024/01/28 09:22:28;;;;;;;11.98;5.03;;;;;;;1.25;100.00;103024.44;4978905;28;20053;-77
2024/01/28 09:24:57;;;;;;;12.90;4.45;;;;;;;1.32;100.00;103031.91;4978471;28;20124;-77
2024/01/28 09:27:25;;;;;;;11.27;4.97;;;;;;;1.40;100.00;103035.06;4972777;28;20492;-78
2024/01/28 09:29:52;;;;;;;15.25;5.07;;;;;;;1.48;100.00;103019.28;4934290;28;20058;-78
2024/01/28 09:32:20;;;;;;;16.13;6.15;;;;;;;1.56;100.00;103023.34;4991964;28;20046;-77
2024/01/28 09:34:47;;;;;;;11.50;4.32;;;;;;;1.66;100.00;103029.25;4956338;28;20056;-77
2024/01/28 09:37:15;;;;;;;10.02;4.63;;;;;;;1.75;100.00;103012.63;4989248;28;20049;-77
2024/01/28 09:39:42;;;;;;;13.55;4.53;;;;;;;1.84;100.00;103007.22;4976426;28;20042;-77
2024/01/28 09:42:10;;;;;;;7.72;3.95;;;;;;;1.97;100.00;103015.88;4965702;28;20068;-77
2024/01/28 09:44:38;;;;;;;9.27;4.47;;;;;;;2.08;100.00;103004.56;4978355;28;20044;-76
2024/01/28 09:47:06;;;;;;;7.63;4.40;;;;;;;2.22;100.00;103008.19;4995443;28;20484;-77
2024/01/28 09:49:39;;;;;;;9.00;4.00;;;;;;;2.37;100.00;102992.78;4958591;28;20073;-77
2024/01/28 09:52:11;;;;;;;9.85;3.92;;;;;;;2.52;100.00;102991.25;4979996;28;20050;-77
2024/01/28 09:54:41;;;;;;;11.35;4.28;;;;;;;2.67;100.00;103001.84;4993336;28;20049;-77
2024/01/28 09:57:10;;;;;;;6.45;3.58;;;;;;;2.79;100.00;102994.88;4979929;28;20046;-77
2024/01/28 09:59:38;;;;;;;8.77;3.90;;;;;;;2.88;100.00;102994.59;4962609;28;20061;-77
2024/01/28 10:02:06;;;;;;;8.77;3.95;;;;;;;2.92;100.00;102989.69;4973666;28;20042;-77
2024/01/28 10:04:34;;;;;;;7.13;3.55;;;;;;;2.97;100.00;102996.91;4974206;28;20042;-77
2024/01/28 10:07:02;;;;;;;7.97;3.70;;;;;;;2.99;100.00;102992.75;4985640;28;20060;-76
2024/01/28 10:09:30;;;;;;;9.30;4.00;;;;;;;3.01;100.00;102991.16;4977573;28;20046;-77
2024/01/28 10:12:02;;;;;;;8.32;4.00;;;;;;;3.03;100.00;102994.75;4980533;28;20641;-77
2024/01/28 10:14:29;;;;;;;8.80;3.60;;;;;;;3.04;100.00;102991.34;4969315;28;20377;-78
2024/01/28 10:16:57;;;;;;;9.65;3.70;;;;;;;3.04;100.00;102987.03;4952062;28;20050;-76
2024/01/28 10:19:25;;;;;;;6.30;3.50;;;;;;;3.07;100.00;102981.13;4986971;28;20057;-76
2024/01/28 10:21:53;;;;;;;8.90;3.63;;;;;;;3.10;100.00;102971.84;4938263;28;20042;-76
2024/01/28 10:24:21;;;;;;;10.80;3.88;;;;;;;3.12;100.00;102977.16;4985855;28;20053;-76
2024/01/28 10:26:48;;;;;;;8.55;3.63;;;;;;;3.15;100.00;102974.72;4975110;28;20060;-79
2024/01/28 10:29:17;;;;;;;8.27;3.80;;;;;;;3.16;100.00;102967.81;4975847;28;20058;-77
2024/01/28 10:31:44;;;;;;;8.35;4.00;;;;;;;3.20;100.00;102969.84;4983215;28;20069;-78
2024/01/28 10:34:12;;;;;;;9.50;3.95;;;;;;;3.22;100.00;102963.94;4977348;28;20064;-78
2024/01/28 10:36:45;;;;;;;11.88;3.95;;;;;;;3.25;100.00;102982.38;5003031;28;20053;-78
2024/01/28 10:39:14;;;;;;;9.02;3.50;;;;;;;3.26;100.00;102959.84;4985953;28;20048;-77
2024/01/28 10:41:54;;;;;;;8.32;3.45;;;;;;;3.29;100.00;102980.91;5011012;28;20056;-78
2024/01/28 10:44:22;;;;;;;9.45;3.25;;;;;;;3.30;100.00;102977.47;4977365;28;20056;-77
2024/01/28 10:46:56;;;;;;;7.38;3.33;;;;;;;3.34;100.00;102976.88;4997799;28;22238;-77
2024/01/28 10:49:33;;;;;;;7.13;3.55;;;;;;;3.43;100.00;102967.06;4993388;28;20076;-78
2024/01/28 10:52:02;;;;;;;7.95;3.92;;;;;;;3.53;100.00;102965.97;4973108;28;20075;-78
2024/01/28 10:54:30;;;;;;;8.82;3.53;;;;;;;3.63;100.00;102954.44;5016309;28;20486;-78
2024/01/28 10:56:59;;;;;;;6.53;3.60;;;;;;;3.72;100.00;102957.63;5019478;28;20068;-78
2024/01/28 10:59:27;;;;;;;13.52;3.72;;;;;;;3.79;100.00;102959.84;4990549;28;20434;-78
2024/01/28 11:01:55;;;;;;;7.22;3.60;;;;;;;3.86;100.00;102954.22;4984092;28;20056;-77
2024/01/28 11:04:23;;;;;;;7.82;3.60;;;;;;;3.95;100.00;102956.53;5013875;28;20052;-78
2024/01/28 11:06:50;;;;;;;7.32;3.50;;;;;;;4.00;100.00;102952.50;4971736;28;20056;-78
2024/01/28 11:09:20;;;;;;;6.13;2.70;;;;;;;4.07;100.00;102953.78;4994527;28;20076;-78
2024/01/28 11:11:48;;;;;;;5.05;2.90;;;;;;;4.13;100.00;102946.34;4989900;28;20049;-78
2024/01/28 11:14:17;;;;;;;10.88;3.15;;;;;;;4.18;100.00;102962.28;5023080;28;20053;-78
2024/01/28 11:16:48;;;;;;;9.40;3.20;;;;;;;4.23;100.00;102950.44;4987267;28;20049;-78
2024/01/28 11:19:16;;;;;;;8.38;2.72;;;;;;;4.27;100.00;102947.19;4995073;28;20539;-78